createdAt,value
2019-02-16T00:01:23.219Z,94.00
2019-02-16T00:03:52.573Z,94.00
2019-02-16T00:06:21.882Z,94.20
2019-02-16T00:08:51.234Z,94.20
2019-02-16T00:11:20.532Z,94.10
2019-02-16T00:13:49.876Z,94.10
2019-02-16T00:16:19.191Z,94.10
2019-02-16T00:18:48.554Z,94.20
2019-02-16T00:21:18.742Z,94.10
2019-02-16T00:23:48.101Z,94.10
2019-02-16T00:26:17.422Z,94.30
2019-02-16T00:28:46.998Z,94.50
2019-02-16T00:31:16.700Z,94.60
2019-02-16T00:33:47.137Z,94.80
2019-02-16T00:36:16.453Z,95.00
2019-02-16T00:38:45.820Z,95.00
2019-02-16T00:41:15.186Z,95.00
2019-02-16T00:43:44.661Z,95.00
2019-02-16T00:46:14.017Z,95.00
2019-02-16T00:48:43.334Z,94.90
2019-02-16T00:51:13.944Z,94.80
2019-02-16T00:53:43.483Z,94.70
2019-02-16T00:56:12.841Z,94.60
2019-02-16T00:58:42.169Z,94.60
2019-02-16T01:01:11.526Z,94.60
2019-02-16T01:03:40.846Z,94.70
2019-02-16T01:06:10.202Z,94.60
2019-02-16T01:08:39.519Z,94.60
2019-02-16T01:11:08.869Z,94.50
2019-02-16T01:13:38.187Z,94.30
2019-02-16T01:16:07.539Z,94.30
2019-02-16T01:18:38.160Z,94.40
2019-02-16T01:21:07.526Z,94.40
2019-02-16T01:23:36.840Z,94.60
2019-02-16T01:26:06.417Z,94.50
2019-02-16T01:28:35.729Z,94.60
2019-02-16T01:31:05.083Z,94.60
2019-02-16T01:33:34.431Z,94.50
2019-02-16T01:36:03.853Z,94.70
2019-02-16T01:38:33.170Z,94.60
2019-02-16T01:41:02.521Z,94.60
2019-02-16T01:43:31.832Z,94.60
2019-02-16T01:46:01.184Z,94.60
2019-02-16T01:48:30.486Z,94.70
2019-02-16T01:50:59.846Z,94.80
2019-02-16T01:53:29.178Z,94.80
2019-02-16T01:55:58.492Z,94.90
2019-02-16T01:58:27.810Z,95.00
2019-02-16T02:00:57.161Z,95.40
2019-02-16T02:03:26.477Z,95.30
2019-02-16T02:05:55.829Z,95.30
2019-02-16T02:08:25.153Z,95.40
2019-02-16T02:10:54.502Z,95.40
2019-02-16T02:13:23.810Z,95.30
2019-02-16T02:15:53.166Z,95.30
2019-02-16T02:18:22.475Z,95.40
2019-02-16T02:20:51.816Z,95.40
2019-02-16T02:23:21.138Z,95.50
2019-02-16T02:25:50.485Z,95.60
2019-02-16T02:28:19.791Z,95.70
2019-02-16T02:30:50.112Z,95.80
2019-02-16T02:33:19.426Z,95.90
2019-02-16T02:35:48.787Z,95.90
2019-02-16T02:38:18.088Z,96.00
2019-02-16T02:40:47.446Z,95.90
2019-02-16T02:43:16.748Z,95.90
2019-02-16T02:45:46.093Z,95.90
2019-02-16T02:48:15.396Z,95.90
2019-02-16T02:50:44.808Z,95.90
2019-02-16T02:53:14.138Z,95.90
2019-02-16T02:55:43.477Z,95.90
2019-02-16T02:58:12.864Z,95.80
2019-02-16T03:00:42.210Z,95.80
2019-02-16T03:03:11.686Z,95.80
2019-02-16T03:05:42.115Z,95.90
2019-02-16T03:08:11.410Z,95.90
2019-02-16T03:10:40.921Z,95.80
2019-02-16T03:13:10.232Z,95.80
2019-02-16T03:15:39.578Z,95.80
2019-02-16T03:18:08.895Z,95.70
2019-02-16T03:20:38.786Z,95.70
2019-02-16T03:23:15.799Z,95.70
2019-02-16T03:25:51.561Z,95.70
2019-02-16T03:28:32.632Z,95.70
2019-02-16T03:31:17.199Z,95.80
2019-02-16T03:33:55.607Z,95.80
2019-02-16T03:36:39.963Z,95.80
2019-02-16T03:39:12.219Z,95.90
2019-02-16T03:41:41.580Z,96.00
2019-02-16T03:44:10.880Z,96.00
2019-02-16T03:46:40.565Z,96.00
2019-02-16T03:49:09.907Z,96.00
2019-02-16T03:51:39.465Z,96.00
2019-02-16T03:54:08.814Z,96.00
2019-02-16T03:56:38.177Z,96.10
2019-02-16T03:59:07.543Z,96.10
2019-02-16T04:01:36.850Z,96.10
2019-02-16T04:04:06.333Z,96.10
2019-02-16T04:06:35.657Z,96.00
2019-02-16T04:09:06.095Z,96.10
2019-02-16T04:11:35.411Z,96.10
2019-02-16T04:14:04.766Z,96.20
2019-02-16T04:16:34.066Z,96.20
2019-02-16T04:19:03.682Z,96.20
2019-02-16T04:21:33.001Z,96.20
2019-02-16T04:24:02.361Z,96.20
2019-02-16T04:26:31.674Z,96.00
2019-02-16T04:29:01.035Z,96.00
2019-02-16T04:31:30.370Z,96.00
2019-02-16T04:34:02.662Z,96.10
2019-02-16T04:36:31.972Z,96.10
2019-02-16T04:39:01.378Z,96.20
2019-02-16T04:41:32.283Z,96.20
2019-02-16T04:44:01.629Z,96.20
2019-02-16T04:46:30.932Z,96.30
2019-02-16T04:49:00.283Z,96.20
2019-02-16T04:51:29.580Z,96.20
2019-02-16T04:53:59.115Z,96.20
2019-02-16T04:56:28.417Z,96.10
2019-02-16T04:58:57.769Z,96.20
2019-02-16T05:01:27.118Z,96.30
2019-02-16T05:03:56.435Z,96.20
2019-02-16T05:06:25.789Z,96.20
2019-02-16T05:08:55.097Z,96.10
2019-02-16T05:11:24.452Z,96.20
2019-02-16T05:13:53.745Z,96.10
2019-02-16T05:16:23.093Z,96.10
2019-02-16T05:18:52.470Z,96.00
2019-02-16T05:21:21.851Z,96.00
2019-02-16T05:23:51.149Z,95.90
2019-02-16T05:26:20.500Z,96.00
2019-02-16T05:28:49.814Z,96.10
2019-02-16T05:31:19.167Z,96.10
2019-02-16T05:33:48.482Z,96.10
2019-02-16T05:36:17.838Z,96.20
2019-02-16T05:38:47.146Z,96.20
2019-02-16T05:41:16.678Z,96.20
2019-02-16T05:43:46.005Z,96.20
2019-02-16T05:46:15.368Z,96.30
2019-02-16T05:48:45.457Z,96.30
2019-02-16T05:51:14.816Z,96.30
2019-02-16T05:53:44.125Z,96.30
2019-02-16T05:56:13.486Z,96.20
2019-02-16T05:58:42.835Z,96.20
2019-02-16T06:01:12.258Z,96.20
2019-02-16T06:03:41.565Z,96.10
2019-02-16T06:06:11.457Z,96.10
2019-02-16T06:08:41.066Z,96.10
2019-02-16T06:11:10.504Z,96.10
2019-02-16T06:13:39.802Z,96.10
2019-02-16T06:16:09.168Z,96.20
2019-02-16T06:18:38.505Z,96.20
2019-02-16T06:21:07.882Z,96.10
2019-02-16T06:23:37.206Z,96.10
2019-02-16T06:26:06.603Z,96.00
2019-02-16T06:28:36.235Z,96.00
2019-02-16T06:31:05.634Z,95.90
2019-02-16T06:33:34.962Z,95.90
2019-02-16T06:36:06.001Z,95.90
2019-02-16T06:38:35.315Z,95.80
2019-02-16T06:41:04.693Z,95.70
2019-02-16T06:43:34.011Z,95.70
2019-02-16T06:46:04.245Z,95.70
2019-02-16T06:48:33.567Z,95.70
2019-02-16T06:51:02.921Z,95.60
2019-02-16T06:53:32.232Z,95.50
2019-02-16T06:56:03.257Z,95.40
2019-02-16T06:58:32.564Z,95.40
2019-02-16T07:01:01.921Z,95.50
2019-02-16T07:03:31.559Z,95.50
2019-02-16T07:06:00.861Z,95.40
2019-02-16T07:08:30.213Z,95.40
2019-02-16T07:10:59.621Z,95.50
2019-02-16T07:13:28.996Z,95.30
2019-02-16T07:16:11.862Z,95.40
2019-02-16T07:18:48.692Z,95.40
2019-02-16T07:21:18.247Z,95.30
2019-02-16T07:23:47.661Z,95.20
2019-02-16T07:26:16.969Z,95.10
2019-02-16T07:28:46.321Z,95.10
2019-02-16T07:31:16.017Z,95.10
2019-02-16T07:33:45.387Z,95.10
2019-02-16T07:36:14.690Z,94.90
2019-02-16T07:38:44.046Z,94.50
2019-02-16T07:41:14.507Z,93.80
2019-02-16T07:43:51.490Z,93.90
2019-02-16T07:46:22.733Z,93.60
2019-02-16T07:48:53.804Z,93.40
2019-02-16T07:51:30.807Z,93.50
2019-02-16T07:54:07.575Z,92.40
2019-02-16T07:56:38.545Z,92.10
2019-02-16T07:59:25.573Z,92.00
2019-02-16T08:01:56.835Z,91.60
2019-02-16T08:04:30.729Z,91.60
2019-02-16T08:07:07.817Z,91.20
2019-02-16T08:09:39.436Z,90.40
2019-02-16T08:12:10.489Z,85.20
2019-02-16T08:14:45.294Z,79.00
2019-02-16T08:17:22.033Z,73.50
2019-02-16T08:20:09.010Z,74.70
2019-02-16T08:22:55.993Z,76.00
2019-02-16T08:25:32.443Z,75.20
2019-02-16T08:28:06.161Z,73.20
2019-02-16T08:30:46.236Z,72.50
2019-02-16T08:33:19.918Z,71.20
2019-02-16T08:36:02.745Z,71.60
2019-02-16T08:38:51.853Z,70.90
2019-02-16T08:41:22.841Z,69.90
2019-02-16T08:43:56.535Z,67.50
2019-02-16T08:46:30.368Z,63.60
2019-02-16T08:49:07.103Z,61.50
2019-02-16T08:51:40.973Z,59.50
2019-02-16T08:54:27.946Z,57.90
2019-02-16T08:57:11.688Z,55.10
2019-02-16T08:59:42.645Z,52.10
2019-02-16T09:02:19.565Z,51.70
2019-02-16T09:04:50.515Z,54.00
2019-02-16T09:07:27.106Z,55.20
2019-02-16T09:10:09.967Z,55.30
2019-02-16T09:12:43.937Z,57.70
2019-02-16T09:15:17.805Z,56.40
2019-02-16T09:18:05.721Z,55.60
2019-02-16T09:20:42.173Z,51.70
2019-02-16T09:23:22.173Z,53.00
2019-02-16T09:25:56.029Z,52.90
2019-02-16T09:28:43.069Z,52.80
2019-02-16T09:31:14.026Z,54.30
2019-02-16T09:33:56.969Z,52.70
2019-02-16T09:36:27.979Z,52.30
2019-02-16T09:39:10.925Z,52.50
2019-02-16T09:41:48.073Z,51.10
2019-02-16T09:44:21.846Z,52.90
2019-02-16T09:46:53.285Z,52.40
2019-02-16T09:49:26.945Z,53.50
2019-02-16T09:52:06.884Z,54.30
2019-02-16T09:54:37.873Z,52.40
2019-02-16T09:57:11.553Z,51.20
2019-02-16T09:59:45.065Z,52.30
2019-02-16T10:02:19.041Z,53.70
2019-02-16T10:04:55.858Z,52.90
2019-02-16T10:07:32.908Z,49.70
2019-02-16T10:10:13.058Z,46.10
2019-02-16T10:12:46.802Z,43.70
2019-02-16T10:15:20.821Z,44.70
2019-02-16T10:17:51.764Z,42.30
2019-02-16T10:20:22.753Z,44.20
2019-02-16T10:22:53.741Z,46.40
2019-02-16T10:25:30.777Z,44.90
2019-02-16T10:28:07.597Z,45.00
2019-02-16T10:30:39.388Z,44.70
2019-02-16T10:33:19.286Z,43.50
2019-02-16T10:35:50.307Z,42.80
2019-02-16T10:38:21.501Z,43.40
2019-02-16T10:40:55.512Z,43.80
2019-02-16T10:43:32.349Z,43.90
2019-02-16T10:46:19.391Z,43.70
2019-02-16T10:49:17.119Z,42.60
2019-02-16T10:52:00.080Z,39.80
2019-02-16T10:54:36.794Z,37.30
2019-02-16T10:57:13.563Z,37.00
2019-02-16T10:59:56.513Z,36.20
2019-02-16T11:02:30.472Z,39.70
2019-02-16T11:05:04.436Z,41.50
2019-02-16T11:07:35.527Z,40.60
2019-02-16T11:10:13.004Z,39.20
2019-02-16T11:12:44.008Z,38.30
2019-02-16T11:15:31.644Z,39.30
2019-02-16T11:18:05.518Z,40.40
2019-02-16T11:20:52.479Z,40.10
2019-02-16T11:23:32.313Z,40.10
2019-02-16T11:26:06.177Z,40.20
2019-02-16T11:28:53.194Z,39.10
2019-02-16T11:31:24.161Z,38.20
2019-02-16T11:33:58.277Z,37.60
2019-02-16T11:36:35.398Z,38.50
2019-02-16T11:39:10.163Z,38.70
2019-02-16T11:41:44.077Z,39.00
2019-02-16T11:44:31.111Z,38.70
2019-02-16T11:47:02.051Z,36.50
2019-02-16T11:49:36.005Z,34.90
2019-02-16T11:52:06.958Z,34.30
2019-02-16T11:54:45.480Z,33.50
2019-02-16T11:57:14.777Z,35.10
2019-02-16T12:00:00.675Z,35.70
2019-02-16T12:02:39.692Z,36.40
2019-02-16T12:05:16.644Z,35.80
2019-02-16T12:07:54.615Z,36.70
2019-02-16T12:10:25.756Z,35.40
2019-02-16T12:13:05.695Z,35.80
2019-02-16T12:15:36.649Z,35.10
2019-02-16T12:18:20.207Z,33.60
2019-02-16T12:21:00.031Z,32.50
2019-02-16T12:23:33.782Z,33.70
2019-02-16T12:26:07.715Z,33.60
2019-02-16T12:28:53.776Z,33.70
2019-02-16T12:31:37.841Z,34.80
2019-02-16T12:34:20.577Z,36.10
2019-02-16T12:37:00.398Z,36.70
2019-02-16T12:39:47.501Z,36.90
2019-02-16T12:42:18.461Z,37.80
2019-02-16T12:45:01.217Z,36.30
2019-02-16T12:47:38.329Z,35.70
2019-02-16T12:50:27.201Z,34.70
2019-02-16T12:53:14.039Z,34.00
2019-02-16T12:55:48.002Z,34.10
2019-02-16T12:58:18.953Z,34.30
2019-02-16T13:00:49.956Z,33.40
2019-02-16T13:03:26.653Z,34.80
2019-02-16T13:05:57.640Z,34.50
2019-02-16T13:08:37.355Z,35.90
2019-02-16T13:11:08.613Z,37.20
2019-02-16T13:13:39.587Z,37.50
2019-02-16T13:16:10.575Z,36.80
2019-02-16T13:18:47.473Z,37.70
2019-02-16T13:21:18.467Z,37.60
2019-02-16T13:23:49.423Z,37.80
2019-02-16T13:26:36.217Z,37.50
2019-02-16T13:29:13.134Z,38.20
2019-02-16T13:31:46.837Z,38.50
2019-02-16T13:34:17.713Z,38.40
2019-02-16T13:36:51.806Z,38.10
2019-02-16T13:39:37.653Z,37.10
2019-02-16T13:42:23.482Z,36.70
2019-02-16T13:44:57.226Z,35.00
2019-02-16T13:47:34.145Z,36.00
2019-02-16T13:50:05.481Z,36.60
2019-02-16T13:52:48.617Z,37.50
2019-02-16T13:55:36.331Z,37.20
2019-02-16T13:58:16.598Z,38.10
2019-02-16T14:00:47.541Z,39.30
2019-02-16T14:03:18.533Z,40.10
2019-02-16T14:06:04.276Z,40.80
2019-02-16T14:08:38.557Z,41.40
2019-02-16T14:11:12.535Z,40.40
2019-02-16T14:13:52.545Z,40.60
2019-02-16T14:16:23.493Z,41.20
2019-02-16T14:18:52.846Z,41.70
2019-02-16T14:21:22.163Z,41.90
2019-02-16T14:23:51.509Z,42.00
2019-02-16T14:26:21.877Z,42.30
2019-02-16T14:28:55.293Z,41.90
2019-02-16T14:31:28.539Z,42.60
2019-02-16T14:33:57.154Z,43.20
2019-02-16T14:36:26.710Z,43.70
2019-02-16T14:39:00.529Z,43.50
2019-02-16T14:41:30.521Z,43.00
2019-02-16T14:43:59.887Z,43.90
2019-02-16T14:46:29.203Z,46.80
2019-02-16T14:48:58.573Z,49.10
2019-02-16T14:51:27.889Z,50.70
2019-02-16T14:53:57.245Z,51.70
2019-02-16T14:56:26.601Z,53.20
2019-02-16T14:58:55.961Z,54.70
2019-02-16T15:01:25.325Z,55.70
2019-02-16T15:03:54.649Z,56.50
2019-02-16T15:06:24.013Z,57.70
2019-02-16T15:08:53.322Z,58.90
2019-02-16T15:11:22.685Z,59.10
2019-02-16T15:13:52.001Z,60.00
2019-02-16T15:16:21.353Z,60.40
2019-02-16T15:18:50.672Z,61.60
2019-02-16T15:21:20.229Z,62.70
2019-02-16T15:23:49.549Z,64.00
2019-02-16T15:26:18.897Z,65.00
2019-02-16T15:28:48.214Z,65.80
2019-02-16T15:31:17.566Z,66.60
2019-02-16T15:33:46.893Z,67.40
2019-02-16T15:36:23.773Z,68.10
2019-02-16T15:38:48.250Z,68.90
2019-02-16T15:41:17.838Z,70.00
2019-02-16T15:43:48.277Z,70.60
2019-02-16T15:46:17.626Z,71.30
2019-02-16T15:48:46.945Z,72.30
2019-02-16T15:51:16.373Z,72.80
2019-02-16T15:53:45.690Z,73.50
2019-02-16T15:56:15.040Z,74.10
2019-02-16T15:58:44.468Z,74.50
2019-02-16T16:01:13.905Z,75.30
2019-02-16T16:03:43.255Z,75.70
2019-02-16T16:06:12.596Z,76.60
2019-02-16T16:08:49.330Z,77.10
2019-02-16T16:11:29.251Z,77.70
2019-02-16T16:14:09.234Z,77.90
2019-02-16T16:16:43.217Z,78.90
2019-02-16T16:19:14.165Z,79.10
2019-02-16T16:22:03.266Z,79.10
2019-02-16T16:24:46.245Z,79.30
2019-02-16T16:27:33.450Z,79.80
2019-02-16T16:30:20.386Z,80.70
2019-02-16T16:33:00.260Z,81.20
2019-02-16T16:35:31.209Z,81.50
2019-02-16T16:38:07.982Z,81.20
2019-02-16T16:40:48.078Z,80.90
2019-02-16T16:43:19.065Z,81.20
2019-02-16T16:46:05.201Z,81.60
2019-02-16T16:48:52.102Z,82.00
2019-02-16T16:51:25.809Z,82.80
2019-02-16T16:53:59.826Z,82.70
2019-02-16T16:56:33.493Z,82.70
2019-02-16T16:59:16.447Z,82.60
2019-02-16T17:01:53.455Z,82.20
2019-02-16T17:04:30.488Z,82.00
2019-02-16T17:07:13.427Z,81.90
2019-02-16T17:09:47.400Z,81.90
2019-02-16T17:12:34.591Z,82.00
2019-02-16T17:14:59.984Z,82.90
2019-02-16T17:17:33.910Z,83.60
2019-02-16T17:20:21.052Z,84.60
2019-02-16T17:23:08.157Z,84.00
2019-02-16T17:25:57.277Z,84.20
2019-02-16T17:28:45.078Z,84.90
2019-02-16T17:31:17.049Z,85.20
2019-02-16T17:33:47.997Z,85.40
2019-02-16T17:36:22.208Z,85.20
2019-02-16T17:39:09.450Z,84.50
2019-02-16T17:41:51.419Z,82.80
2019-02-16T17:44:38.253Z,83.50
2019-02-16T17:47:21.358Z,84.40
2019-02-16T17:50:04.212Z,85.40
2019-02-16T17:52:41.153Z,86.10
2019-02-16T17:55:20.940Z,87.40
2019-02-16T17:57:54.590Z,86.70
2019-02-16T18:00:31.552Z,87.20
2019-02-16T18:03:20.645Z,87.80
2019-02-16T18:06:07.449Z,88.70
2019-02-16T18:08:54.788Z,88.60
2019-02-16T18:11:28.305Z,88.30
2019-02-16T18:14:17.106Z,88.40
2019-02-16T18:16:48.103Z,89.60
2019-02-16T18:19:25.101Z,90.20
2019-02-16T18:21:56.098Z,90.50
2019-02-16T18:24:45.115Z,90.90
2019-02-16T18:27:25.018Z,91.30
2019-02-16T18:29:56.040Z,91.30
2019-02-16T18:32:43.105Z,91.10
2019-02-16T18:35:24.156Z,90.50
2019-02-16T18:37:55.367Z,91.10
2019-02-16T18:40:26.353Z,91.00
2019-02-16T18:43:00.109Z,91.10
2019-02-16T18:45:47.106Z,91.10
2019-02-16T18:48:21.092Z,91.00
2019-02-16T18:51:08.454Z,90.80
2019-02-16T18:53:39.677Z,90.50
2019-02-16T18:56:22.714Z,90.80
2019-02-16T18:58:53.699Z,90.70
2019-02-16T19:01:42.553Z,90.60
2019-02-16T19:04:22.281Z,90.70
2019-02-16T19:07:05.332Z,90.80
2019-02-16T19:09:52.750Z,90.80
2019-02-16T19:12:40.801Z,90.50
2019-02-16T19:15:14.340Z,90.40
2019-02-16T19:17:45.261Z,90.40
2019-02-16T19:20:16.257Z,90.30
2019-02-16T19:22:50.242Z,90.20
2019-02-16T19:25:26.645Z,90.20
2019-02-16T19:28:13.823Z,90.10
2019-02-16T19:30:44.812Z,89.60
2019-02-16T19:33:31.849Z,89.50
2019-02-16T19:36:21.388Z,89.20
2019-02-16T19:38:58.261Z,88.70
2019-02-16T19:41:45.544Z,88.30
2019-02-16T19:44:23.401Z,88.10
2019-02-16T19:46:57.101Z,87.80
2019-02-16T19:49:44.397Z,87.80
2019-02-16T19:52:31.441Z,88.00
2019-02-16T19:55:08.405Z,88.10
2019-02-16T19:57:54.468Z,88.40
2019-02-16T20:00:25.457Z,88.60
2019-02-16T20:03:12.683Z,89.00
2019-02-16T20:05:43.756Z,88.70
2019-02-16T20:08:15.675Z,89.00
2019-02-16T20:10:49.156Z,89.40
2019-02-16T20:13:36.093Z,89.70
2019-02-16T20:16:07.089Z,90.00
2019-02-16T20:18:38.039Z,90.00
2019-02-16T20:21:17.909Z,90.30
2019-02-16T20:23:57.957Z,90.50
2019-02-16T20:26:45.246Z,90.20
2019-02-16T20:29:18.927Z,90.10
2019-02-16T20:31:49.938Z,90.00
2019-02-16T20:34:29.630Z,90.00
2019-02-16T20:37:00.629Z,90.10
2019-02-16T20:39:46.393Z,90.30
2019-02-16T20:42:24.990Z,90.40
2019-02-16T20:45:07.838Z,90.50
2019-02-16T20:47:41.779Z,90.50
2019-02-16T20:50:21.685Z,90.90
2019-02-16T20:53:04.701Z,90.70
2019-02-16T20:55:41.749Z,90.50
2019-02-16T20:58:12.772Z,90.50
2019-02-16T21:00:44.685Z,90.50
2019-02-16T21:03:15.702Z,90.40
2019-02-16T21:05:55.677Z,90.30
2019-02-16T21:08:32.371Z,90.10
2019-02-16T21:11:07.243Z,90.00
2019-02-16T21:13:39.478Z,90.00
2019-02-16T21:16:16.345Z,89.90
2019-02-16T21:18:47.360Z,89.90
2019-02-16T21:21:21.228Z,89.80
2019-02-16T21:23:52.246Z,89.40
2019-02-16T21:26:37.043Z,89.10
2019-02-16T21:29:12.761Z,88.50
2019-02-16T21:31:55.927Z,87.50
2019-02-16T21:34:32.740Z,87.20
2019-02-16T21:37:12.660Z,87.60
2019-02-16T21:39:43.647Z,87.60
2019-02-16T21:42:14.634Z,87.70
2019-02-16T21:44:45.646Z,88.40
2019-02-16T21:47:25.546Z,88.00
2019-02-16T21:50:02.053Z,88.30
2019-02-16T21:52:33.072Z,88.70
2019-02-16T21:55:13.042Z,89.20
2019-02-16T21:57:46.758Z,89.80
2019-02-16T22:00:29.350Z,89.60
2019-02-16T22:03:00.399Z,90.10
2019-02-16T22:05:31.404Z,90.10
2019-02-16T22:08:14.570Z,90.30
2019-02-16T22:10:54.187Z,90.60
2019-02-16T22:13:23.477Z,90.60
2019-02-16T22:15:52.850Z,91.10
2019-02-16T22:18:22.148Z,91.00
2019-02-16T22:20:51.502Z,90.90
2019-02-16T22:23:21.781Z,90.70
2019-02-16T22:25:51.265Z,90.70
2019-02-16T22:28:30.572Z,90.50
2019-02-16T22:30:51.917Z,90.30
2019-02-16T22:33:21.224Z,90.40
2019-02-16T22:35:50.578Z,90.80
2019-02-16T22:38:19.928Z,90.90
2019-02-16T22:40:49.301Z,90.70
2019-02-16T22:43:18.689Z,91.10
2019-02-16T22:45:48.065Z,91.30
2019-02-16T22:48:17.425Z,91.60
2019-02-16T22:50:46.756Z,91.60
2019-02-16T22:53:16.093Z,91.60
2019-02-16T22:55:45.393Z,91.70
2019-02-16T22:58:14.738Z,91.20
2019-02-16T23:00:45.409Z,91.40
2019-02-16T23:03:16.386Z,91.50
2019-02-16T23:05:46.966Z,91.70
2019-02-16T23:08:16.330Z,91.80
2019-02-16T23:10:45.697Z,91.80
2019-02-16T23:13:16.513Z,91.70
2019-02-16T23:15:45.889Z,91.80
2019-02-16T23:18:15.249Z,92.10
2019-02-16T23:20:44.559Z,92.20
2019-02-16T23:23:13.906Z,92.00
2019-02-16T23:25:43.214Z,92.20
2019-02-16T23:28:13.357Z,92.20
2019-02-16T23:30:42.826Z,92.10
2019-02-16T23:33:12.187Z,92.20
2019-02-16T23:35:41.499Z,92.00
2019-02-16T23:38:10.861Z,91.60
2019-02-16T23:40:40.834Z,91.50
2019-02-16T23:43:10.517Z,91.80
2019-02-16T23:45:41.432Z,92.10
2019-02-16T23:48:10.818Z,92.30
2019-02-16T23:50:40.293Z,92.20
2019-02-16T23:53:12.425Z,92.10
2019-02-16T23:55:41.728Z,92.10
2019-02-16T23:58:11.093Z,92.30
